sensor_id;sensor_type;location;lat;lon;timestamp;P1;durP1;ratioP1;P2;durP2;ratioP2
5493;SDS011;2769;49.864;8.656;2023-08-24T00:01:38;4.57;;;3.97;;
5493;SDS011;2769;49.864;8.656;2023-08-24T00:04:27;7.20;;;3.90;;
5493;SDS011;2769;49.864;8.656;2023-08-24T00:07:15;4.80;;;4.37;;
5493;SDS011;2769;49.864;8.656;2023-08-24T00:10:04;7.63;;;4.50;;
5493;SDS011;2769;49.864;8.656;2023-08-24T00:12:52;5.70;;;4.57;;
5493;SDS011;2769;49.864;8.656;2023-08-24T00:15:42;4.43;;;4.03;;
5493;SDS011;2769;49.864;8.656;2023-08-24T00:18:30;7.33;;;5.00;;
5493;SDS011;2769;49.864;8.656;2023-08-24T00:21:19;4.97;;;4.50;;
5493;SDS011;2769;49.864;8.656;2023-08-24T00:24:10;5.83;;;4.70;;
5493;SDS011;2769;49.864;8.656;2023-08-24T00:26:58;8.30;;;5.40;;
5493;SDS011;2769;49.864;8.656;2023-08-24T00:29:46;6.10;;;4.60;;
5493;SDS011;2769;49.864;8.656;2023-08-24T00:32:37;6.23;;;4.80;;
5493;SDS011;2769;49.864;8.656;2023-08-24T00:35:25;6.70;;;4.87;;
5493;SDS011;2769;49.864;8.656;2023-08-24T00:38:13;12.27;;;5.50;;
5493;SDS011;2769;49.864;8.656;2023-08-24T00:41:02;8.20;;;5.20;;
5493;SDS011;2769;49.864;8.656;2023-08-24T00:43:50;5.90;;;5.07;;
5493;SDS011;2769;49.864;8.656;2023-08-24T00:46:39;6.57;;;5.20;;
5493;SDS011;2769;49.864;8.656;2023-08-24T00:49:29;6.30;;;5.17;;
5493;SDS011;2769;49.864;8.656;2023-08-24T00:52:17;7.30;;;4.97;;
5493;SDS011;2769;49.864;8.656;2023-08-24T00:55:06;12.60;;;5.27;;
5493;SDS011;2769;49.864;8.656;2023-08-24T00:57:56;6.53;;;4.73;;
5493;SDS011;2769;49.864;8.656;2023-08-24T01:00:45;12.03;;;5.90;;
5493;SDS011;2769;49.864;8.656;2023-08-24T01:03:34;5.30;;;4.83;;
5493;SDS011;2769;49.864;8.656;2023-08-24T01:06:23;6.00;;;5.37;;
5493;SDS011;2769;49.864;8.656;2023-08-24T01:09:12;6.57;;;4.80;;
5493;SDS011;2769;49.864;8.656;2023-08-24T01:12:03;9.33;;;4.60;;
5493;SDS011;2769;49.864;8.656;2023-08-24T01:14:58;5.50;;;4.30;;
5493;SDS011;2769;49.864;8.656;2023-08-24T01:17:49;11.90;;;4.90;;
5493;SDS011;2769;49.864;8.656;2023-08-24T01:20:38;5.13;;;4.73;;
5493;SDS011;2769;49.864;8.656;2023-08-24T01:23:32;5.93;;;4.83;;
5493;SDS011;2769;49.864;8.656;2023-08-24T01:26:25;10.43;;;5.03;;
5493;SDS011;2769;49.864;8.656;2023-08-24T01:29:14;5.80;;;5.30;;
5493;SDS011;2769;49.864;8.656;2023-08-24T01:32:04;5.83;;;5.33;;
5493;SDS011;2769;49.864;8.656;2023-08-24T01:34:52;7.40;;;5.23;;
5493;SDS011;2769;49.864;8.656;2023-08-24T01:37:40;5.73;;;4.50;;
5493;SDS011;2769;49.864;8.656;2023-08-24T01:40:31;6.73;;;4.90;;
5493;SDS011;2769;49.864;8.656;2023-08-24T01:43:25;5.30;;;4.50;;
5493;SDS011;2769;49.864;8.656;2023-08-24T01:46:29;6.60;;;4.80;;
5493;SDS011;2769;49.864;8.656;2023-08-24T01:49:20;6.63;;;5.27;;
5493;SDS011;2769;49.864;8.656;2023-08-24T01:52:10;7.60;;;5.97;;
5493;SDS011;2769;49.864;8.656;2023-08-24T01:54:59;8.33;;;5.00;;
5493;SDS011;2769;49.864;8.656;2023-08-24T01:57:48;10.50;;;5.60;;
5493;SDS011;2769;49.864;8.656;2023-08-24T02:00:38;6.00;;;5.50;;
5493;SDS011;2769;49.864;8.656;2023-08-24T02:03:26;7.60;;;5.10;;
5493;SDS011;2769;49.864;8.656;2023-08-24T02:06:15;5.50;;;5.00;;
5493;SDS011;2769;49.864;8.656;2023-08-24T02:09:03;7.40;;;5.50;;
5493;SDS011;2769;49.864;8.656;2023-08-24T02:11:51;7.40;;;4.80;;
5493;SDS011;2769;49.864;8.656;2023-08-24T02:14:39;7.20;;;4.80;;
5493;SDS011;2769;49.864;8.656;2023-08-24T02:17:29;5.57;;;5.07;;
5493;SDS011;2769;49.864;8.656;2023-08-24T02:20:17;5.60;;;4.50;;
5493;SDS011;2769;49.864;8.656;2023-08-24T02:23:06;6.47;;;4.87;;
5493;SDS011;2769;49.864;8.656;2023-08-24T02:25:56;8.63;;;4.97;;
5493;SDS011;2769;49.864;8.656;2023-08-24T02:28:44;6.90;;;4.90;;
5493;SDS011;2769;49.864;8.656;2023-08-24T02:31:32;5.30;;;4.90;;
5493;SDS011;2769;49.864;8.656;2023-08-24T02:34:22;5.43;;;4.93;;
5493;SDS011;2769;49.864;8.656;2023-08-24T02:37:10;5.17;;;4.57;;
5493;SDS011;2769;49.864;8.656;2023-08-24T02:40:00;6.20;;;5.40;;
5493;SDS011;2769;49.864;8.656;2023-08-24T02:42:50;8.37;;;5.83;;
5493;SDS011;2769;49.864;8.656;2023-08-24T02:45:38;7.80;;;5.17;;
5493;SDS011;2769;49.864;8.656;2023-08-24T02:48:27;12.13;;;5.10;;
5493;SDS011;2769;49.864;8.656;2023-08-24T02:51:17;6.10;;;5.50;;
5493;SDS011;2769;49.864;8.656;2023-08-24T02:54:05;7.73;;;6.13;;
5493;SDS011;2769;49.864;8.656;2023-08-24T02:56:53;7.33;;;6.60;;
5493;SDS011;2769;49.864;8.656;2023-08-24T02:59:41;6.87;;;5.87;;
5493;SDS011;2769;49.864;8.656;2023-08-24T03:02:31;6.90;;;6.20;;
5493;SDS011;2769;49.864;8.656;2023-08-24T03:05:20;8.07;;;6.37;;
5493;SDS011;2769;49.864;8.656;2023-08-24T03:08:10;9.70;;;7.13;;
5493;SDS011;2769;49.864;8.656;2023-08-24T03:10:58;7.27;;;6.57;;
5493;SDS011;2769;49.864;8.656;2023-08-24T03:13:47;7.07;;;6.47;;
5493;SDS011;2769;49.864;8.656;2023-08-24T03:16:36;8.37;;;7.57;;
5493;SDS011;2769;49.864;8.656;2023-08-24T03:19:25;8.20;;;7.50;;
5493;SDS011;2769;49.864;8.656;2023-08-24T03:22:13;10.23;;;6.73;;
5493;SDS011;2769;49.864;8.656;2023-08-24T03:25:03;12.10;;;6.80;;
5493;SDS011;2769;49.864;8.656;2023-08-24T03:27:52;8.90;;;6.77;;
5493;SDS011;2769;49.864;8.656;2023-08-24T03:30:45;12.43;;;6.10;;
5493;SDS011;2769;49.864;8.656;2023-08-24T03:33:34;9.00;;;6.03;;
5493;SDS011;2769;49.864;8.656;2023-08-24T03:36:22;7.97;;;6.20;;
5493;SDS011;2769;49.864;8.656;2023-08-24T03:39:11;7.40;;;6.50;;
5493;SDS011;2769;49.864;8.656;2023-08-24T03:42:01;7.83;;;5.93;;
5493;SDS011;2769;49.864;8.656;2023-08-24T03:44:50;6.80;;;6.20;;
5493;SDS011;2769;49.864;8.656;2023-08-24T03:47:40;6.50;;;5.30;;
5493;SDS011;2769;49.864;8.656;2023-08-24T03:50:28;8.73;;;5.30;;
5493;SDS011;2769;49.864;8.656;2023-08-24T03:53:17;7.43;;;6.13;;
5493;SDS011;2769;49.864;8.656;2023-08-24T03:56:06;11.13;;;5.90;;
5493;SDS011;2769;49.864;8.656;2023-08-24T03:58:57;11.27;;;6.77;;
5493;SDS011;2769;49.864;8.656;2023-08-24T04:01:47;9.50;;;6.10;;
5493;SDS011;2769;49.864;8.656;2023-08-24T04:04:36;7.63;;;5.63;;
5493;SDS011;2769;49.864;8.656;2023-08-24T04:07:25;9.70;;;7.00;;
5493;SDS011;2769;49.864;8.656;2023-08-24T04:10:13;12.13;;;6.07;;
5493;SDS011;2769;49.864;8.656;2023-08-24T04:13:01;6.47;;;5.97;;
5493;SDS011;2769;49.864;8.656;2023-08-24T04:15:51;7.20;;;6.20;;
5493;SDS011;2769;49.864;8.656;2023-08-24T04:18:40;6.27;;;5.27;;
5493;SDS011;2769;49.864;8.656;2023-08-24T04:21:28;7.73;;;5.87;;
5493;SDS011;2769;49.864;8.656;2023-08-24T04:24:17;6.10;;;5.60;;
5493;SDS011;2769;49.864;8.656;2023-08-24T04:27:05;7.83;;;6.17;;
5493;SDS011;2769;49.864;8.656;2023-08-24T04:29:53;7.60;;;6.53;;
5493;SDS011;2769;49.864;8.656;2023-08-24T04:32:43;8.53;;;6.80;;
5493;SDS011;2769;49.864;8.656;2023-08-24T04:35:33;8.30;;;6.40;;
5493;SDS011;2769;49.864;8.656;2023-08-24T04:38:21;8.10;;;6.30;;
5493;SDS011;2769;49.864;8.656;2023-08-24T04:41:09;7.93;;;7.13;;
5493;SDS011;2769;49.864;8.656;2023-08-24T04:43:59;11.40;;;7.00;;
5493;SDS011;2769;49.864;8.656;2023-08-24T04:46:47;8.30;;;6.83;;
5493;SDS011;2769;49.864;8.656;2023-08-24T04:49:37;9.77;;;6.67;;
5493;SDS011;2769;49.864;8.656;2023-08-24T04:52:25;7.33;;;6.63;;
5493;SDS011;2769;49.864;8.656;2023-08-24T04:55:14;8.20;;;6.33;;
5493;SDS011;2769;49.864;8.656;2023-08-24T04:58:02;7.90;;;6.07;;
5493;SDS011;2769;49.864;8.656;2023-08-24T05:00:50;6.73;;;6.03;;
5493;SDS011;2769;49.864;8.656;2023-08-24T05:03:39;7.20;;;6.33;;
5493;SDS011;2769;49.864;8.656;2023-08-24T05:06:28;6.47;;;5.43;;
5493;SDS011;2769;49.864;8.656;2023-08-24T05:09:17;12.03;;;5.63;;
5493;SDS011;2769;49.864;8.656;2023-08-24T05:12:05;5.80;;;5.27;;
5493;SDS011;2769;49.864;8.656;2023-08-24T05:14:54;5.47;;;4.97;;
5493;SDS011;2769;49.864;8.656;2023-08-24T05:17:42;7.33;;;6.10;;
5493;SDS011;2769;49.864;8.656;2023-08-24T05:20:31;6.30;;;5.77;;
5493;SDS011;2769;49.864;8.656;2023-08-24T05:23:21;12.73;;;6.07;;
5493;SDS011;2769;49.864;8.656;2023-08-24T05:26:09;6.80;;;6.20;;
5493;SDS011;2769;49.864;8.656;2023-08-24T05:28:57;9.80;;;6.20;;
5493;SDS011;2769;49.864;8.656;2023-08-24T05:31:46;8.83;;;6.30;;
5493;SDS011;2769;49.864;8.656;2023-08-24T05:34:34;7.23;;;6.47;;
5493;SDS011;2769;49.864;8.656;2023-08-24T05:37:23;7.70;;;7.00;;
5493;SDS011;2769;49.864;8.656;2023-08-24T05:40:12;11.57;;;7.30;;
5493;SDS011;2769;49.864;8.656;2023-08-24T05:43:01;8.50;;;7.13;;
5493;SDS011;2769;49.864;8.656;2023-08-24T05:45:49;9.03;;;7.40;;
5493;SDS011;2769;49.864;8.656;2023-08-24T05:48:37;9.10;;;7.37;;
5493;SDS011;2769;49.864;8.656;2023-08-24T05:51:26;12.73;;;6.77;;
5493;SDS011;2769;49.864;8.656;2023-08-24T05:54:14;11.00;;;7.03;;
5493;SDS011;2769;49.864;8.656;2023-08-24T05:57:06;8.73;;;6.93;;
5493;SDS011;2769;49.864;8.656;2023-08-24T05:59:54;7.73;;;7.07;;
5493;SDS011;2769;49.864;8.656;2023-08-24T06:02:43;9.33;;;6.00;;
5493;SDS011;2769;49.864;8.656;2023-08-24T06:05:33;6.47;;;5.70;;
5493;SDS011;2769;49.864;8.656;2023-08-24T06:08:23;11.13;;;6.67;;
5493;SDS011;2769;49.864;8.656;2023-08-24T06:11:11;17.53;;;7.03;;
5493;SDS011;2769;49.864;8.656;2023-08-24T06:14:00;8.80;;;6.30;;
5493;SDS011;2769;49.864;8.656;2023-08-24T06:16:49;9.00;;;6.63;;
5493;SDS011;2769;49.864;8.656;2023-08-24T06:19:40;8.23;;;6.60;;
5493;SDS011;2769;49.864;8.656;2023-08-24T06:22:28;12.70;;;5.87;;
5493;SDS011;2769;49.864;8.656;2023-08-24T06:25:16;8.63;;;5.93;;
5493;SDS011;2769;49.864;8.656;2023-08-24T06:28:05;6.93;;;6.17;;
5493;SDS011;2769;49.864;8.656;2023-08-24T06:30:55;7.70;;;6.50;;
5493;SDS011;2769;49.864;8.656;2023-08-24T06:33:43;10.17;;;6.30;;
5493;SDS011;2769;49.864;8.656;2023-08-24T06:36:32;5.27;;;4.90;;
5493;SDS011;2769;49.864;8.656;2023-08-24T06:39:20;16.47;;;6.37;;
5493;SDS011;2769;49.864;8.656;2023-08-24T06:42:08;9.40;;;6.30;;
5493;SDS011;2769;49.864;8.656;2023-08-24T06:44:56;7.00;;;6.30;;
5493;SDS011;2769;49.864;8.656;2023-08-24T06:47:46;11.10;;;7.00;;
5493;SDS011;2769;49.864;8.656;2023-08-24T06:50:35;8.23;;;6.50;;
5493;SDS011;2769;49.864;8.656;2023-08-24T06:53:24;6.70;;;6.10;;
5493;SDS011;2769;49.864;8.656;2023-08-24T06:56:12;7.83;;;5.97;;
5493;SDS011;2769;49.864;8.656;2023-08-24T06:59:01;5.60;;;5.10;;
5493;SDS011;2769;49.864;8.656;2023-08-24T07:01:49;11.73;;;6.70;;
5493;SDS011;2769;49.864;8.656;2023-08-24T07:04:42;10.60;;;5.33;;
5493;SDS011;2769;49.864;8.656;2023-08-24T07:07:30;6.30;;;5.80;;
5493;SDS011;2769;49.864;8.656;2023-08-24T07:10:18;7.37;;;6.67;;
5493;SDS011;2769;49.864;8.656;2023-08-24T07:13:07;8.97;;;5.93;;
5493;SDS011;2769;49.864;8.656;2023-08-24T07:15:56;6.10;;;5.50;;
5493;SDS011;2769;49.864;8.656;2023-08-24T07:18:44;6.40;;;5.77;;
5493;SDS011;2769;49.864;8.656;2023-08-24T07:21:33;9.00;;;5.73;;
5493;SDS011;2769;49.864;8.656;2023-08-24T07:24:22;8.70;;;6.30;;
5493;SDS011;2769;49.864;8.656;2023-08-24T07:27:30;6.60;;;5.90;;
5493;SDS011;2769;49.864;8.656;2023-08-24T07:30:19;6.40;;;5.80;;
5493;SDS011;2769;49.864;8.656;2023-08-24T07:33:19;5.83;;;5.33;;
5493;SDS011;2769;49.864;8.656;2023-08-24T07:36:08;6.13;;;5.43;;
5493;SDS011;2769;49.864;8.656;2023-08-24T07:38:57;6.80;;;4.63;;
5493;SDS011;2769;49.864;8.656;2023-08-24T07:41:46;9.50;;;4.93;;
5493;SDS011;2769;49.864;8.656;2023-08-24T07:44:34;8.37;;;5.20;;
5493;SDS011;2769;49.864;8.656;2023-08-24T07:47:22;5.40;;;5.00;;
5493;SDS011;2769;49.864;8.656;2023-08-24T07:50:11;5.37;;;4.83;;
5493;SDS011;2769;49.864;8.656;2023-08-24T07:52:59;9.10;;;5.47;;
5493;SDS011;2769;49.864;8.656;2023-08-24T07:55:48;7.20;;;5.40;;
5493;SDS011;2769;49.864;8.656;2023-08-24T07:58:37;10.63;;;5.10;;
5493;SDS011;2769;49.864;8.656;2023-08-24T08:01:25;5.30;;;4.80;;
5493;SDS011;2769;49.864;8.656;2023-08-24T08:04:14;7.63;;;5.27;;
5493;SDS011;2769;49.864;8.656;2023-08-24T08:07:02;8.13;;;4.80;;
5493;SDS011;2769;49.864;8.656;2023-08-24T08:09:50;6.43;;;4.60;;
5493;SDS011;2769;49.864;8.656;2023-08-24T08:12:40;5.10;;;4.70;;
5493;SDS011;2769;49.864;8.656;2023-08-24T08:15:28;6.07;;;4.63;;
5493;SDS011;2769;49.864;8.656;2023-08-24T08:18:16;5.60;;;4.73;;
5493;SDS011;2769;49.864;8.656;2023-08-24T08:21:08;4.60;;;4.20;;
5493;SDS011;2769;49.864;8.656;2023-08-24T08:23:57;8.70;;;4.80;;
5493;SDS011;2769;49.864;8.656;2023-08-24T08:26:45;4.63;;;4.23;;
5493;SDS011;2769;49.864;8.656;2023-08-24T08:29:35;4.60;;;3.97;;
5493;SDS011;2769;49.864;8.656;2023-08-24T08:32:23;6.90;;;3.87;;
5493;SDS011;2769;49.864;8.656;2023-08-24T08:35:14;9.50;;;4.10;;
5493;SDS011;2769;49.864;8.656;2023-08-24T08:38:02;4.23;;;3.83;;
5493;SDS011;2769;49.864;8.656;2023-08-24T08:40:51;3.90;;;3.70;;
5493;SDS011;2769;49.864;8.656;2023-08-24T08:43:39;7.03;;;4.00;;
5493;SDS011;2769;49.864;8.656;2023-08-24T08:46:29;4.50;;;4.10;;
5493;SDS011;2769;49.864;8.656;2023-08-24T08:49:17;7.80;;;4.00;;
5493;SDS011;2769;49.864;8.656;2023-08-24T08:52:07;4.20;;;3.90;;
5493;SDS011;2769;49.864;8.656;2023-08-24T08:54:55;4.73;;;4.30;;
5493;SDS011;2769;49.864;8.656;2023-08-24T08:57:44;6.20;;;4.23;;
5493;SDS011;2769;49.864;8.656;2023-08-24T09:00:35;4.40;;;4.10;;
5493;SDS011;2769;49.864;8.656;2023-08-24T09:03:25;7.37;;;4.27;;
5493;SDS011;2769;49.864;8.656;2023-08-24T09:06:15;7.80;;;4.60;;
5493;SDS011;2769;49.864;8.656;2023-08-24T09:09:04;9.73;;;4.70;;
5493;SDS011;2769;49.864;8.656;2023-08-24T09:11:52;7.23;;;4.23;;
5493;SDS011;2769;49.864;8.656;2023-08-24T09:14:40;4.83;;;4.40;;
5493;SDS011;2769;49.864;8.656;2023-08-24T09:17:29;5.53;;;4.40;;
5493;SDS011;2769;49.864;8.656;2023-08-24T09:20:19;10.03;;;4.97;;
5493;SDS011;2769;49.864;8.656;2023-08-24T09:23:11;4.87;;;4.47;;
5493;SDS011;2769;49.864;8.656;2023-08-24T09:26:05;10.40;;;5.30;;
5493;SDS011;2769;49.864;8.656;2023-08-24T09:28:53;4.90;;;4.50;;
5493;SDS011;2769;49.864;8.656;2023-08-24T09:31:42;4.83;;;4.50;;
5493;SDS011;2769;49.864;8.656;2023-08-24T09:34:31;10.10;;;4.33;;
5493;SDS011;2769;49.864;8.656;2023-08-24T09:37:21;5.33;;;4.20;;
5493;SDS011;2769;49.864;8.656;2023-08-24T09:40:09;4.47;;;4.07;;
5493;SDS011;2769;49.864;8.656;2023-08-24T09:42:58;5.63;;;4.20;;
5493;SDS011;2769;49.864;8.656;2023-08-24T09:45:51;9.17;;;4.23;;
5493;SDS011;2769;49.864;8.656;2023-08-24T09:48:39;4.57;;;4.20;;
5493;SDS011;2769;49.864;8.656;2023-08-24T09:51:27;5.40;;;3.57;;
5493;SDS011;2769;49.864;8.656;2023-08-24T09:54:17;4.47;;;3.60;;
5493;SDS011;2769;49.864;8.656;2023-08-24T09:57:10;6.03;;;3.77;;
5493;SDS011;2769;49.864;8.656;2023-08-24T09:59:58;3.87;;;3.57;;
5493;SDS011;2769;49.864;8.656;2023-08-24T10:02:48;3.53;;;3.23;;
5493;SDS011;2769;49.864;8.656;2023-08-24T10:05:38;2.77;;;2.67;;
5493;SDS011;2769;49.864;8.656;2023-08-24T10:08:43;3.27;;;2.97;;
5493;SDS011;2769;49.864;8.656;2023-08-24T10:11:35;6.73;;;3.23;;
5493;SDS011;2769;49.864;8.656;2023-08-24T10:14:31;3.53;;;2.93;;
5493;SDS011;2769;49.864;8.656;2023-08-24T10:17:22;3.60;;;3.10;;
5493;SDS011;2769;49.864;8.656;2023-08-24T10:20:11;4.37;;;2.80;;
5493;SDS011;2769;49.864;8.656;2023-08-24T10:22:59;3.37;;;2.50;;
5493;SDS011;2769;49.864;8.656;2023-08-24T10:25:51;4.70;;;2.77;;
5493;SDS011;2769;49.864;8.656;2023-08-24T10:28:41;6.73;;;2.50;;
5493;SDS011;2769;49.864;8.656;2023-08-24T10:31:31;2.40;;;2.30;;
5493;SDS011;2769;49.864;8.656;2023-08-24T10:34:19;5.53;;;2.27;;
5493;SDS011;2769;49.864;8.656;2023-08-24T10:37:08;6.10;;;2.77;;
5493;SDS011;2769;49.864;8.656;2023-08-24T10:39:57;4.63;;;2.73;;
5493;SDS011;2769;49.864;8.656;2023-08-24T10:42:45;2.87;;;2.40;;
5493;SDS011;2769;49.864;8.656;2023-08-24T10:45:55;2.87;;;2.67;;
5493;SDS011;2769;49.864;8.656;2023-08-24T10:51:55;2.60;;;2.43;;
5493;SDS011;2769;49.864;8.656;2023-08-24T10:54:44;3.70;;;2.33;;
5493;SDS011;2769;49.864;8.656;2023-08-24T10:57:35;2.30;;;2.20;;
5493;SDS011;2769;49.864;8.656;2023-08-24T11:00:25;6.30;;;2.30;;
5493;SDS011;2769;49.864;8.656;2023-08-24T11:03:15;2.33;;;2.20;;
5493;SDS011;2769;49.864;8.656;2023-08-24T11:06:19;2.60;;;2.50;;
5493;SDS011;2769;49.864;8.656;2023-08-24T11:09:08;2.53;;;2.33;;
5493;SDS011;2769;49.864;8.656;2023-08-24T11:12:01;2.60;;;2.40;;
5493;SDS011;2769;49.864;8.656;2023-08-24T11:14:52;2.60;;;2.50;;
5493;SDS011;2769;49.864;8.656;2023-08-24T11:17:41;3.00;;;2.37;;
5493;SDS011;2769;49.864;8.656;2023-08-24T11:20:31;3.77;;;2.10;;
5493;SDS011;2769;49.864;8.656;2023-08-24T11:23:20;9.33;;;2.60;;
5493;SDS011;2769;49.864;8.656;2023-08-24T11:26:09;5.23;;;2.57;;
5493;SDS011;2769;49.864;8.656;2023-08-24T11:28:58;2.50;;;2.30;;
5493;SDS011;2769;49.864;8.656;2023-08-24T11:31:46;3.95;;;2.00;;
5493;SDS011;2769;49.864;8.656;2023-08-24T11:34:35;2.25;;;2.00;;
5493;SDS011;2769;49.864;8.656;2023-08-24T11:37:26;2.15;;;2.05;;
5493;SDS011;2769;49.864;8.656;2023-08-24T11:40:16;2.40;;;2.10;;
5493;SDS011;2769;49.864;8.656;2023-08-24T11:43:05;3.92;;;1.92;;
5493;SDS011;2769;49.864;8.656;2023-08-24T11:45:53;1.90;;;1.80;;
5493;SDS011;2769;49.864;8.656;2023-08-24T11:48:42;4.28;;;2.28;;
5493;SDS011;2769;49.864;8.656;2023-08-24T11:51:30;2.10;;;1.92;;
5493;SDS011;2769;49.864;8.656;2023-08-24T11:54:33;2.07;;;1.90;;
5493;SDS011;2769;49.864;8.656;2023-08-24T11:57:24;2.60;;;2.40;;
5493;SDS011;2769;49.864;8.656;2023-08-24T12:00:14;12.00;;;2.90;;
5493;SDS011;2769;49.864;8.656;2023-08-24T12:03:03;3.97;;;2.60;;
5493;SDS011;2769;49.864;8.656;2023-08-24T12:05:52;5.13;;;2.33;;
5493;SDS011;2769;49.864;8.656;2023-08-24T12:08:40;3.50;;;2.33;;
5493;SDS011;2769;49.864;8.656;2023-08-24T12:11:34;2.70;;;2.43;;
5493;SDS011;2769;49.864;8.656;2023-08-24T12:14:23;2.70;;;2.00;;
5493;SDS011;2769;49.864;8.656;2023-08-24T12:17:11;4.37;;;2.60;;
5493;SDS011;2769;49.864;8.656;2023-08-24T12:20:00;3.80;;;2.30;;
5493;SDS011;2769;49.864;8.656;2023-08-24T12:22:53;4.47;;;2.23;;
5493;SDS011;2769;49.864;8.656;2023-08-24T12:25:42;9.80;;;2.60;;
5493;SDS011;2769;49.864;8.656;2023-08-24T12:28:32;3.03;;;2.27;;
5493;SDS011;2769;49.864;8.656;2023-08-24T12:31:20;3.83;;;2.43;;
5493;SDS011;2769;49.864;8.656;2023-08-24T12:34:14;8.30;;;2.37;;
5493;SDS011;2769;49.864;8.656;2023-08-24T12:37:03;2.37;;;2.20;;
5493;SDS011;2769;49.864;8.656;2023-08-24T12:39:51;4.00;;;2.40;;
5493;SDS011;2769;49.864;8.656;2023-08-24T12:42:41;4.23;;;2.70;;
5493;SDS011;2769;49.864;8.656;2023-08-24T12:45:31;2.43;;;2.20;;
5493;SDS011;2769;49.864;8.656;2023-08-24T12:48:20;4.53;;;2.40;;
5493;SDS011;2769;49.864;8.656;2023-08-24T12:51:08;2.50;;;2.30;;
5493;SDS011;2769;49.864;8.656;2023-08-24T12:53:56;6.00;;;2.30;;
5493;SDS011;2769;49.864;8.656;2023-08-24T12:56:44;2.57;;;2.33;;
5493;SDS011;2769;49.864;8.656;2023-08-24T12:59:33;5.43;;;2.67;;
5493;SDS011;2769;49.864;8.656;2023-08-24T13:02:22;6.13;;;2.77;;
5493;SDS011;2769;49.864;8.656;2023-08-24T13:05:24;4.33;;;2.93;;
5493;SDS011;2769;49.864;8.656;2023-08-24T13:08:12;2.50;;;2.30;;
5493;SDS011;2769;49.864;8.656;2023-08-24T13:11:01;12.30;;;2.50;;
5493;SDS011;2769;49.864;8.656;2023-08-24T13:13:49;8.13;;;2.70;;
5493;SDS011;2769;49.864;8.656;2023-08-24T13:16:37;3.63;;;2.70;;
5493;SDS011;2769;49.864;8.656;2023-08-24T13:19:27;3.60;;;2.70;;
5493;SDS011;2769;49.864;8.656;2023-08-24T13:22:15;3.20;;;2.90;;
5493;SDS011;2769;49.864;8.656;2023-08-24T13:25:04;4.80;;;2.77;;
5493;SDS011;2769;49.864;8.656;2023-08-24T13:27:52;6.33;;;3.40;;
5493;SDS011;2769;49.864;8.656;2023-08-24T13:30:43;3.07;;;2.90;;
5493;SDS011;2769;49.864;8.656;2023-08-24T13:33:31;5.10;;;2.87;;
5493;SDS011;2769;49.864;8.656;2023-08-24T13:36:20;2.90;;;2.70;;
5493;SDS011;2769;49.864;8.656;2023-08-24T13:39:09;5.97;;;3.10;;
5493;SDS011;2769;49.864;8.656;2023-08-24T13:41:57;8.70;;;3.10;;
5493;SDS011;2769;49.864;8.656;2023-08-24T13:44:46;4.80;;;3.03;;
5493;SDS011;2769;49.864;8.656;2023-08-24T13:47:35;4.27;;;3.30;;
5493;SDS011;2769;49.864;8.656;2023-08-24T13:50:23;9.30;;;3.40;;
5493;SDS011;2769;49.864;8.656;2023-08-24T13:53:12;6.70;;;2.90;;
5493;SDS011;2769;49.864;8.656;2023-08-24T13:56:01;8.30;;;2.87;;
5493;SDS011;2769;49.864;8.656;2023-08-24T13:58:49;2.97;;;2.70;;
5493;SDS011;2769;49.864;8.656;2023-08-24T14:01:37;3.90;;;2.00;;
5493;SDS011;2769;49.864;8.656;2023-08-24T14:04:25;2.97;;;2.65;;
5493;SDS011;2769;49.864;8.656;2023-08-24T14:07:14;3.70;;;2.25;;
5493;SDS011;2769;49.864;8.656;2023-08-24T14:10:04;10.05;;;2.47;;
5493;SDS011;2769;49.864;8.656;2023-08-24T14:12:54;2.70;;;2.50;;
5493;SDS011;2769;49.864;8.656;2023-08-24T14:15:43;10.63;;;2.80;;
5493;SDS011;2769;49.864;8.656;2023-08-24T14:18:31;2.97;;;2.73;;
5493;SDS011;2769;49.864;8.656;2023-08-24T14:21:19;4.47;;;2.60;;
5493;SDS011;2769;49.864;8.656;2023-08-24T14:24:30;3.10;;;2.87;;
5493;SDS011;2769;49.864;8.656;2023-08-24T14:27:22;5.73;;;3.00;;
5493;SDS011;2769;49.864;8.656;2023-08-24T14:30:11;3.80;;;3.03;;
5493;SDS011;2769;49.864;8.656;2023-08-24T14:33:00;11.70;;;3.40;;
5493;SDS011;2769;49.864;8.656;2023-08-24T14:35:51;3.03;;;2.77;;
5493;SDS011;2769;49.864;8.656;2023-08-24T14:38:40;7.73;;;3.83;;
5493;SDS011;2769;49.864;8.656;2023-08-24T14:41:28;9.53;;;3.77;;
5493;SDS011;2769;49.864;8.656;2023-08-24T14:44:18;7.07;;;3.97;;
5493;SDS011;2769;49.864;8.656;2023-08-24T14:47:06;7.10;;;4.43;;
5493;SDS011;2769;49.864;8.656;2023-08-24T14:49:55;11.77;;;5.20;;
5493;SDS011;2769;49.864;8.656;2023-08-24T14:52:43;9.20;;;3.83;;
5493;SDS011;2769;49.864;8.656;2023-08-24T14:55:31;4.20;;;3.80;;
5493;SDS011;2769;49.864;8.656;2023-08-24T14:58:20;3.70;;;3.40;;
5493;SDS011;2769;49.864;8.656;2023-08-24T15:01:09;9.80;;;4.17;;
5493;SDS011;2769;49.864;8.656;2023-08-24T15:03:58;8.93;;;3.77;;
5493;SDS011;2769;49.864;8.656;2023-08-24T15:06:46;7.53;;;3.30;;
5493;SDS011;2769;49.864;8.656;2023-08-24T15:09:35;3.37;;;3.10;;
5493;SDS011;2769;49.864;8.656;2023-08-24T15:12:23;6.60;;;4.17;;
5493;SDS011;2769;49.864;8.656;2023-08-24T15:15:12;5.50;;;3.57;;
5493;SDS011;2769;49.864;8.656;2023-08-24T15:18:05;7.90;;;3.90;;
5493;SDS011;2769;49.864;8.656;2023-08-24T15:20:53;4.37;;;3.97;;
5493;SDS011;2769;49.864;8.656;2023-08-24T15:23:42;5.97;;;4.40;;
5493;SDS011;2769;49.864;8.656;2023-08-24T15:26:30;6.00;;;4.97;;
5493;SDS011;2769;49.864;8.656;2023-08-24T15:29:18;11.23;;;5.20;;
5493;SDS011;2769;49.864;8.656;2023-08-24T15:32:07;7.13;;;4.70;;
5493;SDS011;2769;49.864;8.656;2023-08-24T15:34:56;5.60;;;4.70;;
5493;SDS011;2769;49.864;8.656;2023-08-24T15:37:45;5.83;;;4.60;;
5493;SDS011;2769;49.864;8.656;2023-08-24T15:40:34;5.30;;;4.80;;
5493;SDS011;2769;49.864;8.656;2023-08-24T15:43:22;7.27;;;4.93;;
5493;SDS011;2769;49.864;8.656;2023-08-24T15:46:11;7.53;;;4.70;;
5493;SDS011;2769;49.864;8.656;2023-08-24T15:48:59;5.97;;;5.00;;
5493;SDS011;2769;49.864;8.656;2023-08-24T15:51:52;10.13;;;4.80;;
5493;SDS011;2769;49.864;8.656;2023-08-24T15:54:41;6.17;;;4.47;;
5493;SDS011;2769;49.864;8.656;2023-08-24T15:57:29;5.20;;;4.70;;
5493;SDS011;2769;49.864;8.656;2023-08-24T16:00:17;6.73;;;5.03;;
5493;SDS011;2769;49.864;8.656;2023-08-24T16:03:06;7.43;;;4.77;;
5493;SDS011;2769;49.864;8.656;2023-08-24T16:05:57;5.17;;;4.53;;
5493;SDS011;2769;49.864;8.656;2023-08-24T16:08:47;4.80;;;4.50;;
5493;SDS011;2769;49.864;8.656;2023-08-24T16:11:35;6.90;;;5.17;;
5493;SDS011;2769;49.864;8.656;2023-08-24T16:14:23;6.83;;;4.97;;
5493;SDS011;2769;49.864;8.656;2023-08-24T16:17:11;9.07;;;5.10;;
5493;SDS011;2769;49.864;8.656;2023-08-24T16:20:01;6.03;;;5.07;;
5493;SDS011;2769;49.864;8.656;2023-08-24T16:22:53;8.60;;;4.77;;
5493;SDS011;2769;49.864;8.656;2023-08-24T16:25:44;5.00;;;4.70;;
5493;SDS011;2769;49.864;8.656;2023-08-24T16:28:32;5.07;;;4.60;;
5493;SDS011;2769;49.864;8.656;2023-08-24T16:31:20;7.50;;;4.83;;
5493;SDS011;2769;49.864;8.656;2023-08-24T16:34:08;14.40;;;4.90;;
5493;SDS011;2769;49.864;8.656;2023-08-24T16:36:57;8.10;;;4.80;;
5493;SDS011;2769;49.864;8.656;2023-08-24T16:39:45;5.00;;;4.53;;
5493;SDS011;2769;49.864;8.656;2023-08-24T16:42:35;7.20;;;3.90;;
5493;SDS011;2769;49.864;8.656;2023-08-24T16:45:23;6.50;;;4.33;;
5493;SDS011;2769;49.864;8.656;2023-08-24T16:48:12;6.20;;;4.43;;
5493;SDS011;2769;49.864;8.656;2023-08-24T16:51:00;5.90;;;4.30;;
5493;SDS011;2769;49.864;8.656;2023-08-24T16:53:49;5.90;;;4.50;;
5493;SDS011;2769;49.864;8.656;2023-08-24T16:56:37;6.53;;;5.10;;
5493;SDS011;2769;49.864;8.656;2023-08-24T16:59:27;5.33;;;4.47;;
5493;SDS011;2769;49.864;8.656;2023-08-24T17:02:16;21.30;;;7.10;;
5493;SDS011;2769;49.864;8.656;2023-08-24T17:05:05;15.03;;;7.17;;
5493;SDS011;2769;49.864;8.656;2023-08-24T17:08:01;9.70;;;6.80;;
5493;SDS011;2769;49.864;8.656;2023-08-24T17:10:51;10.67;;;6.83;;
5493;SDS011;2769;49.864;8.656;2023-08-24T17:13:39;9.27;;;7.20;;
5493;SDS011;2769;49.864;8.656;2023-08-24T17:16:28;10.23;;;7.63;;
5493;SDS011;2769;49.864;8.656;2023-08-24T17:19:17;7.70;;;7.00;;
5493;SDS011;2769;49.864;8.656;2023-08-24T17:22:05;8.33;;;7.30;;
5493;SDS011;2769;49.864;8.656;2023-08-24T17:24:53;11.43;;;7.63;;
5493;SDS011;2769;49.864;8.656;2023-08-24T17:27:42;8.57;;;7.63;;
5493;SDS011;2769;49.864;8.656;2023-08-24T17:30:30;10.57;;;7.87;;
5493;SDS011;2769;49.864;8.656;2023-08-24T17:33:20;10.00;;;7.80;;